Language selection

Weather shortcuts

Hudson - Hudson Bay: Past 24 Hour Conditions

 

Fort Severn Airport

08:00 PM EST 04 March 2024
Disclaimer

This table is a summary of hourly weather conditions for the past 24 hours.
Please note that these observations might not always be representative of weather conditions over their associated marine area.

Date / Time
(EST)
Wind(knots) Conditions Visibility(km) Pressure(kPa) Air tempC) Relative humidity(%) Dew pointC) Wind Chill
04 March 2024
20:00 NE 6 Light Snow 16 100.4 -12 94 -13 -18
19:00 NE 5 Light Snow 16 100.4 -12 93 -12 -17
18:00 ENE 7 Light Snow 5 100.4 -11 92 -12 -17
17:00 E 9 Light Snow 3 100.4 -11 92 -12 -18
16:00 E 13 Light Snow 2 100.4 -11 90 -12 -20
15:00 E 14 gusts 19 Light Snow 4 100.4 -11 89 -13 -21
14:00 E 15 gusts 25 Light Snow 2 100.5 -12 89 -13 -21
13:00 E 20 gusts 25 Light Snow 2 100.5 -12 88 -14 -23
12:00 E 20 gusts 32 Light Snow 1 100.6 -12 88 -14 -23
11:00 E 25 gusts 32 Blowing Snow 1 100.8 -13 89 -15 -25
10:00 E 22 gusts 32 Blowing Snow 0.8 100.8 -14 88 -16 -26
9:00 E 19 gusts 31 Blowing Snow 0.6 101.0 -15 89 -16 -27
8:00 E 21 gusts 33 Snow 0.8 101.2 -16 88 -17 -28
7:00 E 18 gusts 25 Mostly Cloudy 16 101.5 -16 82 -19 -28
6:00 E 20 gusts 26 Cloudy 16 101.8 -17 86 -19 -30
5:00 E 18 gusts 25 Mostly Cloudy 16 102.0 -18 87 -20 -30
4:00 ENE 12 gusts 17 Mostly Cloudy 16 102.3 -20 86 -22 -31
3:00 E 12 Mostly Cloudy 16 102.6 -21 85 -23 -32
2:00 E 9 gusts 15 Mainly Clear 16 102.8 -21 84 -23 -31
1:00 E 9 Partly Cloudy 16 102.9 -22 85 -24 -32
0:00 E 11 gusts 16 Mainly Clear 16 103.0 -22 84 -24 -33
03 March 2024
23:00 E 7 Mostly Cloudy 16 103.1 -25 82 -27 -34
22:00 ENE 6 Partly Cloudy 16 103.2 -25 83 -27 -34
21:00 E 7 Partly Cloudy 16 103.3 -23 84 -25 -32
20:00 E 7 Partly Cloudy 16 103.4 -23 87 -25 -32

Zoom-in to make a selection

Map of Hudson - Hudson Bay marine weather areas Arviat Airport Baker Lake Airport Chesterfield Inlet Airport Coral Harbour Airport Rankin Inlet Airport Sanikiluaq Airport Whale Cove Airport Kinngait (Cape Dorset Airport) Iqaluit Airport Wager Bay Kimmirut Airport Churchill Airport Fort Severn Airport Peawanuck Airport Moosonee Airport Eastmain Airport La Grande Rivière Airport Waskaganish Airport Wemindji Airport Akulivik Airport Inukjuak Airport Ivujivik Airport Kuujjuarapik Airport Puvirnituq Airport Umiujaq Airport Aupaluk Airport Kangiqsujuaq Airport Kangirsuk Airport Kangiqsualujjuaq Airport Kuujjuaq Airport Quaqtaq Airport Salluit Airport Tasiujaq Airport Cape Kakkiviak
Legend:
buoy Buoy
land station Land Station

Hudson - Hudson Bay Area

Another Region

Date modified: